sensor_id;sensor_type;location;lat;lon;timestamp;pressure;altitude;pressure_sealevel;temperature;humidity
78170;BME280;67412;49.892;14.490;2023-12-29T00:01:53;97128.69;;;6.96;100.00
78170;BME280;67412;49.892;14.490;2023-12-29T00:04:18;97128.69;;;6.96;100.00
78170;BME280;67412;49.892;14.490;2023-12-29T00:06:44;97130.41;;;6.97;100.00
78170;BME280;67412;49.892;14.490;2023-12-29T00:09:09;97126.13;;;6.99;100.00
78170;BME280;67412;49.892;14.490;2023-12-29T00:11:35;97127.00;;;6.96;100.00
78170;BME280;67412;49.892;14.490;2023-12-29T00:14:00;97128.69;;;6.99;100.00
78170;BME280;67412;49.892;14.490;2023-12-29T00:16:29;97132.91;;;7.07;100.00
78170;BME280;67412;49.892;14.490;2023-12-29T00:18:54;97132.06;;;7.02;100.00
78170;BME280;67412;49.892;14.490;2023-12-29T00:21:19;97123.53;;;7.06;100.00
78170;BME280;67412;49.892;14.490;2023-12-29T00:23:45;97130.34;;;7.06;100.00
78170;BME280;67412;49.892;14.490;2023-12-29T00:26:10;97128.66;;;7.02;100.00
78170;BME280;67412;49.892;14.490;2023-12-29T00:28:35;97131.22;;;7.03;100.00
78170;BME280;67412;49.892;14.490;2023-12-29T00:31:05;97125.28;;;7.00;100.00
78170;BME280;67412;49.892;14.490;2023-12-29T00:33:31;97123.53;;;7.11;100.00
78170;BME280;67412;49.892;14.490;2023-12-29T00:35:57;97108.25;;;7.05;100.00
78170;BME280;67412;49.892;14.490;2023-12-29T00:38:22;97108.25;;;7.00;100.00
78170;BME280;67412;49.892;14.490;2023-12-29T00:40:48;97104.84;;;6.94;100.00
78170;BME280;67412;49.892;14.490;2023-12-29T00:43:13;97100.59;;;6.91;100.00
78170;BME280;67412;49.892;14.490;2023-12-29T00:45:39;97104.88;;;6.86;100.00
78170;BME280;67412;49.892;14.490;2023-12-29T00:48:04;97101.47;;;6.87;100.00
78170;BME280;67412;49.892;14.490;2023-12-29T00:50:30;97100.66;;;6.85;100.00
78170;BME280;67412;49.892;14.490;2023-12-29T00:52:55;97097.25;;;6.82;100.00
78170;BME280;67412;49.892;14.490;2023-12-29T00:55:20;97103.19;;;6.84;100.00
78170;BME280;67412;49.892;14.490;2023-12-29T00:57:46;97106.59;;;6.84;100.00
78170;BME280;67412;49.892;14.490;2023-12-29T01:00:12;97121.03;;;6.94;100.00
78170;BME280;67412;49.892;14.490;2023-12-29T01:02:41;97121.03;;;7.00;100.00
78170;BME280;67412;49.892;14.490;2023-12-29T01:05:06;97113.34;;;7.05;100.00
78170;BME280;67412;49.892;14.490;2023-12-29T01:07:32;97113.34;;;7.02;100.00
78170;BME280;67412;49.892;14.490;2023-12-29T01:09:57;97105.69;;;7.05;100.00
78170;BME280;67412;49.892;14.490;2023-12-29T01:12:22;97116.72;;;7.10;100.00
78170;BME280;67412;49.892;14.490;2023-12-29T01:14:48;97105.63;;;7.18;100.00
78170;BME280;67412;49.892;14.490;2023-12-29T01:17:13;97115.78;;;7.24;100.00
78170;BME280;67412;49.892;14.490;2023-12-29T01:19:38;97106.38;;;7.31;100.00
78170;BME280;67412;49.892;14.490;2023-12-29T01:22:04;97113.22;;;7.32;100.00
78170;BME280;67412;49.892;14.490;2023-12-29T01:24:30;97113.22;;;7.27;100.00
78170;BME280;67412;49.892;14.490;2023-12-29T01:26:55;97125.16;;;7.30;100.00
78170;BME280;67412;49.892;14.490;2023-12-29T01:29:21;97116.66;;;7.26;100.00
78170;BME280;67412;49.892;14.490;2023-12-29T01:31:46;97121.72;;;7.31;100.00
78170;BME280;67412;49.892;14.490;2023-12-29T01:34:12;97128.53;;;7.32;100.00
78170;BME280;67412;49.892;14.490;2023-12-29T01:36:38;97123.41;;;7.35;100.00
78170;BME280;67412;49.892;14.490;2023-12-29T01:39:03;97126.84;;;7.33;100.00
78170;BME280;67412;49.892;14.490;2023-12-29T01:41:29;97120.88;;;7.32;100.00
78170;BME280;67412;49.892;14.490;2023-12-29T01:46:24;97120.03;;;7.33;100.00
78170;BME280;67412;49.892;14.490;2023-12-29T01:48:50;97113.22;;;7.27;100.00
78170;BME280;67412;49.892;14.490;2023-12-29T01:51:17;97132.78;;;7.32;100.00
78170;BME280;67412;49.892;14.490;2023-12-29T01:53:43;97126.88;;;7.25;100.00
78170;BME280;67412;49.892;14.490;2023-12-29T01:56:09;97124.28;;;7.28;100.00
78170;BME280;67412;49.892;14.490;2023-12-29T01:58:34;97124.28;;;7.37;100.00
78170;BME280;67412;49.892;14.490;2023-12-29T02:01:01;97125.88;;;7.50;100.00
78170;BME280;67412;49.892;14.490;2023-12-29T02:03:27;97121.53;;;7.67;100.00
78170;BME280;67412;49.892;14.490;2023-12-29T02:05:54;97113.84;;;7.72;100.00
78170;BME280;67412;49.892;14.490;2023-12-29T02:08:22;97100.19;;;7.73;100.00
78170;BME280;67412;49.892;14.490;2023-12-29T02:10:47;97095.94;;;7.73;100.00
78170;BME280;67412;49.892;14.490;2023-12-29T02:13:13;97092.59;;;7.64;100.00
78170;BME280;67412;49.892;14.490;2023-12-29T02:15:38;97096.88;;;7.60;100.00
78170;BME280;67412;49.892;14.490;2023-12-29T02:18:06;97093.44;;;7.63;100.00
78170;BME280;67412;49.892;14.490;2023-12-29T02:20:32;97094.31;;;7.60;100.00
78170;BME280;67412;49.892;14.490;2023-12-29T02:22:58;97098.59;;;7.60;100.00
78170;BME280;67412;49.892;14.490;2023-12-29T02:25:23;97092.63;;;7.59;100.00
78170;BME280;67412;49.892;14.490;2023-12-29T02:28:12;97079.78;;;7.67;100.00
78170;BME280;67412;49.892;14.490;2023-12-29T02:31:01;97077.25;;;7.62;100.00
78170;BME280;67412;49.892;14.490;2023-12-29T02:33:33;97074.69;;;7.62;100.00
78170;BME280;67412;49.892;14.490;2023-12-29T02:36:01;97069.56;;;7.65;100.00
78170;BME280;67412;49.892;14.490;2023-12-29T02:38:28;97077.25;;;7.64;100.00
78170;BME280;67412;49.892;14.490;2023-12-29T02:40:58;97059.34;;;7.65;100.00
78170;BME280;67412;49.892;14.490;2023-12-29T02:43:23;97052.56;;;7.60;100.00
78170;BME280;67412;49.892;14.490;2023-12-29T02:45:48;97044.06;;;7.59;100.00
78170;BME280;67412;49.892;14.490;2023-12-29T02:48:14;97030.47;;;7.51;100.00
78170;BME280;67412;49.892;14.490;2023-12-29T02:50:39;97042.41;;;7.52;100.00
78170;BME280;67412;49.892;14.490;2023-12-29T02:53:05;97041.53;;;7.50;100.00
78170;BME280;67412;49.892;14.490;2023-12-29T02:55:30;97033.91;;;7.47;100.00
78170;BME280;67412;49.892;14.490;2023-12-29T02:57:56;97026.22;;;7.53;100.00
78170;BME280;67412;49.892;14.490;2023-12-29T03:00:21;97016.03;;;7.47;100.00
78170;BME280;67412;49.892;14.490;2023-12-29T03:02:46;97026.25;;;7.44;100.00
78170;BME280;67412;49.892;14.490;2023-12-29T03:05:12;97035.69;;;7.36;100.00
78170;BME280;67412;49.892;14.490;2023-12-29T03:07:37;97027.19;;;7.31;100.00
78170;BME280;67412;49.892;14.490;2023-12-29T03:10:05;97024.69;;;7.25;100.00
78170;BME280;67412;49.892;14.490;2023-12-29T03:12:30;97028.09;;;7.21;100.00
78170;BME280;67412;49.892;14.490;2023-12-29T03:14:56;97031.50;;;7.24;100.00
78170;BME280;67412;49.892;14.490;2023-12-29T03:17:21;97034.94;;;7.23;100.00
78170;BME280;67412;49.892;14.490;2023-12-29T03:19:47;97028.03;;;7.35;100.00
78170;BME280;67412;49.892;14.490;2023-12-29T03:22:12;97034.78;;;7.45;100.00
78170;BME280;67412;49.892;14.490;2023-12-29T03:24:40;97030.44;;;7.54;100.00
78170;BME280;67412;49.892;14.490;2023-12-29T03:27:06;97032.13;;;7.58;100.00
78170;BME280;67412;49.892;14.490;2023-12-29T03:29:31;97014.28;;;7.52;100.00
78170;BME280;67412;49.892;14.490;2023-12-29T03:31:56;97004.09;;;7.49;100.00
78170;BME280;67412;49.892;14.490;2023-12-29T03:34:22;97000.72;;;7.44;100.00
78170;BME280;67412;49.892;14.490;2023-12-29T03:36:47;96999.91;;;7.36;100.00
78170;BME280;67412;49.892;14.490;2023-12-29T03:39:12;96982.06;;;7.30;100.00
78170;BME280;67412;49.892;14.490;2023-12-29T03:41:38;96982.06;;;7.30;100.00
78170;BME280;67412;49.892;14.490;2023-12-29T03:44:03;96985.44;;;7.35;100.00
78170;BME280;67412;49.892;14.490;2023-12-29T03:46:31;96976.91;;;7.36;100.00
78170;BME280;67412;49.892;14.490;2023-12-29T03:48:57;96980.31;;;7.35;100.00
78170;BME280;67412;49.892;14.490;2023-12-29T03:51:22;96983.69;;;7.40;100.00
78170;BME280;67412;49.892;14.490;2023-12-29T03:53:47;96994.81;;;7.33;100.00
78170;BME280;67412;49.892;14.490;2023-12-29T03:56:17;96997.41;;;7.30;100.00
78170;BME280;67412;49.892;14.490;2023-12-29T03:58:44;96993.06;;;7.40;100.00
78170;BME280;67412;49.892;14.490;2023-12-29T04:01:16;97001.50;;;7.51;100.00
78170;BME280;67412;49.892;14.490;2023-12-29T04:03:42;96986.97;;;7.59;100.00
78170;BME280;67412;49.892;14.490;2023-12-29T04:06:08;96992.03;;;7.65;100.00
78170;BME280;67412;49.892;14.490;2023-12-29T04:08:37;96982.66;;;7.68;100.00
78170;BME280;67412;49.892;14.490;2023-12-29T04:11:04;96980.13;;;7.62;100.00
78170;BME280;67412;49.892;14.490;2023-12-29T04:13:29;96975.09;;;7.53;100.00
78170;BME280;67412;49.892;14.490;2023-12-29T04:15:55;96972.56;;;7.47;100.00
78170;BME280;67412;49.892;14.490;2023-12-29T04:18:22;96964.91;;;7.47;100.00
78170;BME280;67412;49.892;14.490;2023-12-29T04:20:48;96970.06;;;7.41;100.00
78170;BME280;67412;49.892;14.490;2023-12-29T04:23:13;96960.69;;;7.43;100.00
78170;BME280;67412;49.892;14.490;2023-12-29T04:25:39;96952.22;;;7.35;100.00
78170;BME280;67412;49.892;14.490;2023-12-29T04:28:04;96944.66;;;7.23;100.00
78170;BME280;67412;49.892;14.490;2023-12-29T04:30:30;96955.78;;;7.16;100.00
78170;BME280;67412;49.892;14.490;2023-12-29T04:32:55;96947.31;;;7.08;100.00
78170;BME280;67412;49.892;14.490;2023-12-29T04:35:21;96950.72;;;7.05;100.00
78170;BME280;67412;49.892;14.490;2023-12-29T04:37:46;96939.72;;;6.99;100.00
78170;BME280;67412;49.892;14.490;2023-12-29T04:40:12;96946.63;;;6.82;100.00
78170;BME280;67412;49.892;14.490;2023-12-29T04:42:37;96948.28;;;6.89;100.00
78170;BME280;67412;49.892;14.490;2023-12-29T04:45:04;96940.59;;;6.93;100.00
78170;BME280;67412;49.892;14.490;2023-12-29T04:47:29;96949.09;;;6.94;100.00
78170;BME280;67412;49.892;14.490;2023-12-29T04:49:55;96942.28;;;6.96;100.00
78170;BME280;67412;49.892;14.490;2023-12-29T04:52:20;96942.25;;;6.99;100.00
78170;BME280;67412;49.892;14.490;2023-12-29T04:54:46;96937.19;;;6.96;100.00
78170;BME280;67412;49.892;14.490;2023-12-29T04:57:11;96936.28;;;7.03;100.00
78170;BME280;67412;49.892;14.490;2023-12-29T04:59:36;96938.00;;;6.99;100.00
78170;BME280;67412;49.892;14.490;2023-12-29T05:02:02;96936.28;;;7.03;100.00
78170;BME280;67412;49.892;14.490;2023-12-29T05:04:27;96933.75;;;6.98;100.00
78170;BME280;67412;49.892;14.490;2023-12-29T05:06:52;96937.16;;;6.99;100.00
78170;BME280;67412;49.892;14.490;2023-12-29T05:09:18;96941.41;;;6.98;100.00
78170;BME280;67412;49.892;14.490;2023-12-29T05:11:43;96940.56;;;6.99;100.00
78170;BME280;67412;49.892;14.490;2023-12-29T05:14:08;96947.38;;;6.99;100.00
78170;BME280;67412;49.892;14.490;2023-12-29T05:16:34;96939.72;;;6.99;100.00
78170;BME280;67412;49.892;14.490;2023-12-29T05:19:00;96948.22;;;6.98;100.00
78170;BME280;67412;49.892;14.490;2023-12-29T05:21:25;96950.78;;;6.99;100.00
78170;BME280;67412;49.892;14.490;2023-12-29T05:23:52;96955.84;;;7.02;100.00
78170;BME280;67412;49.892;14.490;2023-12-29T05:26:17;96946.47;;;7.06;100.00
78170;BME280;67412;49.892;14.490;2023-12-29T05:28:42;96952.44;;;7.02;100.00
78170;BME280;67412;49.892;14.490;2023-12-29T05:31:08;96949.00;;;7.09;100.00
78170;BME280;67412;49.892;14.490;2023-12-29T05:33:34;96955.81;;;7.11;100.00
78170;BME280;67412;49.892;14.490;2023-12-29T05:36:06;96947.34;;;7.03;100.00
78170;BME280;67412;49.892;14.490;2023-12-29T05:38:33;96949.03;;;7.01;100.00
78170;BME280;67412;49.892;14.490;2023-12-29T05:40:58;96950.00;;;6.90;100.00
78170;BME280;67412;49.892;14.490;2023-12-29T05:43:26;96949.91;;;7.00;100.00
78170;BME280;67412;49.892;14.490;2023-12-29T05:45:51;96957.56;;;7.05;100.00
78170;BME280;67412;49.892;14.490;2023-12-29T05:48:17;96962.66;;;7.05;100.00
78170;BME280;67412;49.892;14.490;2023-12-29T05:50:42;96960.13;;;7.02;100.00
78170;BME280;67412;49.892;14.490;2023-12-29T05:53:07;96966.09;;;7.01;100.00
78170;BME280;67412;49.892;14.490;2023-12-29T05:55:33;96957.56;;;7.02;100.00
78170;BME280;67412;49.892;14.490;2023-12-29T05:57:58;96956.72;;;7.04;100.00
78170;BME280;67412;49.892;14.490;2023-12-29T06:00:23;96958.44;;;6.99;100.00
78170;BME280;67412;49.892;14.490;2023-12-29T06:02:49;96958.38;;;7.05;100.00
78170;BME280;67412;49.892;14.490;2023-12-29T06:05:15;96961.84;;;7.00;100.00
78170;BME280;67412;49.892;14.490;2023-12-29T06:07:40;96968.66;;;7.01;100.00
78170;BME280;67412;49.892;14.490;2023-12-29T06:10:06;96962.66;;;7.02;100.00
78170;BME280;67412;49.892;14.490;2023-12-29T06:12:33;96973.75;;;6.98;100.00
78170;BME280;67412;49.892;14.490;2023-12-29T06:14:58;96982.22;;;7.06;100.00
78170;BME280;67412;49.892;14.490;2023-12-29T06:17:24;96976.28;;;7.08;100.00
78170;BME280;67412;49.892;14.490;2023-12-29T06:19:49;96967.69;;;7.12;100.00
78170;BME280;67412;49.892;14.490;2023-12-29T06:22:14;96963.50;;;7.08;100.00
78170;BME280;67412;49.892;14.490;2023-12-29T06:24:40;96969.47;;;7.04;100.00
78170;BME280;67412;49.892;14.490;2023-12-29T06:27:09;96967.84;;;6.91;100.00
78170;BME280;67412;49.892;14.490;2023-12-29T06:29:35;96978.88;;;7.01;100.00
78170;BME280;67412;49.892;14.490;2023-12-29T06:32:01;96976.31;;;6.98;100.00
78170;BME280;67412;49.892;14.490;2023-12-29T06:34:26;96986.53;;;6.96;100.00
78170;BME280;67412;49.892;14.490;2023-12-29T06:36:52;96976.31;;;7.01;100.00
78170;BME280;67412;49.892;14.490;2023-12-29T06:39:17;96965.22;;;7.05;100.00
78170;BME280;67412;49.892;14.490;2023-12-29T06:41:42;96961.03;;;6.92;100.00
78170;BME280;67412;49.892;14.490;2023-12-29T06:44:08;96957.56;;;7.05;100.00
78170;BME280;67412;49.892;14.490;2023-12-29T06:46:33;96953.28;;;7.05;100.00
78170;BME280;67412;49.892;14.490;2023-12-29T06:48:58;96957.53;;;7.08;100.00
78170;BME280;67412;49.892;14.490;2023-12-29T06:51:24;96972.84;;;7.09;100.00
78170;BME280;67412;49.892;14.490;2023-12-29T06:53:49;96970.19;;;7.20;100.00
78170;BME280;67412;49.892;14.490;2023-12-29T06:56:15;96965.94;;;7.25;100.00
78170;BME280;67412;49.892;14.490;2023-12-29T06:58:41;96977.81;;;7.27;100.00
78170;BME280;67412;49.892;14.490;2023-12-29T07:01:07;96978.56;;;7.43;100.00
78170;BME280;67412;49.892;14.490;2023-12-29T07:03:32;96978.53;;;7.46;100.00
78170;BME280;67412;49.892;14.490;2023-12-29T07:06:00;96982.81;;;7.43;100.00
78170;BME280;67412;49.892;14.490;2023-12-29T07:08:26;96985.44;;;7.38;100.00
78170;BME280;67412;49.892;14.490;2023-12-29T07:10:52;96985.47;;;7.32;100.00
78170;BME280;67412;49.892;14.490;2023-12-29T07:13:17;96978.66;;;7.34;100.00
78170;BME280;67412;49.892;14.490;2023-12-29T07:15:43;96982.84;;;7.40;100.00
78170;BME280;67412;49.892;14.490;2023-12-29T07:18:08;96991.41;;;7.36;100.00
78170;BME280;67412;49.892;14.490;2023-12-29T07:20:33;96985.44;;;7.35;100.00
78170;BME280;67412;49.892;14.490;2023-12-29T07:22:59;96987.16;;;7.33;100.00
78170;BME280;67412;49.892;14.490;2023-12-29T07:25:25;96984.59;;;7.38;100.00
78170;BME280;67412;49.892;14.490;2023-12-29T07:27:50;96977.72;;;7.44;100.00
78170;BME280;67412;49.892;14.490;2023-12-29T07:30:16;96969.19;;;7.44;100.00
78170;BME280;67412;49.892;14.490;2023-12-29T07:32:41;96977.66;;;7.50;99.96
78170;BME280;67412;49.892;14.490;2023-12-29T07:35:07;96977.66;;;7.50;99.89
78170;BME280;67412;49.892;14.490;2023-12-29T07:37:32;96970.88;;;7.49;99.10
78170;BME280;67412;49.892;14.490;2023-12-29T07:39:58;96982.75;;;7.52;98.56
78170;BME280;67412;49.892;14.490;2023-12-29T07:42:23;96992.91;;;7.64;97.01
78170;BME280;67412;49.892;14.490;2023-12-29T07:44:49;96997.16;;;7.63;97.76
78170;BME280;67412;49.892;14.490;2023-12-29T07:47:14;96998.91;;;7.58;98.09
78170;BME280;67412;49.892;14.490;2023-12-29T07:49:41;97000.66;;;7.53;98.29
78170;BME280;67412;49.892;14.490;2023-12-29T07:52:07;96998.06;;;7.56;98.10
78170;BME280;67412;49.892;14.490;2023-12-29T07:54:32;96997.19;;;7.57;97.70
78170;BME280;67412;49.892;14.490;2023-12-29T07:56:58;96992.97;;;7.55;98.17
78170;BME280;67412;49.892;14.490;2023-12-29T07:59:23;96987.88;;;7.52;98.38
78170;BME280;67412;49.892;14.490;2023-12-29T08:01:48;96990.44;;;7.53;97.65
78170;BME280;67412;49.892;14.490;2023-12-29T08:04:14;96996.31;;;7.63;97.34
78170;BME280;67412;49.892;14.490;2023-12-29T08:06:39;96992.06;;;7.59;97.88
78170;BME280;67412;49.892;14.490;2023-12-29T08:09:04;96992.06;;;7.60;97.18
78170;BME280;67412;49.892;14.490;2023-12-29T08:11:30;96996.31;;;7.61;96.21
78170;BME280;67412;49.892;14.490;2023-12-29T08:13:56;97000.53;;;7.67;95.60
78170;BME280;67412;49.892;14.490;2023-12-29T08:16:21;96988.63;;;7.64;96.31
78170;BME280;67412;49.892;14.490;2023-12-29T08:18:48;96993.69;;;7.70;94.80
78170;BME280;67412;49.892;14.490;2023-12-29T08:21:20;96987.69;;;7.73;94.08
78170;BME280;67412;49.892;14.490;2023-12-29T08:23:46;96987.72;;;7.70;95.07
78170;BME280;67412;49.892;14.490;2023-12-29T08:26:12;96992.81;;;7.76;94.63
78170;BME280;67412;49.892;14.490;2023-12-29T08:28:37;96996.22;;;7.75;93.69
78170;BME280;67412;49.892;14.490;2023-12-29T08:31:03;96993.59;;;7.81;93.48
78170;BME280;67412;49.892;14.490;2023-12-29T08:33:28;96994.41;;;7.85;93.18
78170;BME280;67412;49.892;14.490;2023-12-29T08:35:54;96999.56;;;7.83;94.09
78170;BME280;67412;49.892;14.490;2023-12-29T08:38:24;97000.31;;;7.94;92.61
78170;BME280;67412;49.892;14.490;2023-12-29T08:40:49;96998.47;;;8.08;92.05
78170;BME280;67412;49.892;14.490;2023-12-29T08:43:15;97006.88;;;8.18;91.68
78170;BME280;67412;49.892;14.490;2023-12-29T08:45:42;97003.41;;;8.28;91.22
78170;BME280;67412;49.892;14.490;2023-12-29T08:48:07;97006.72;;;8.39;91.14
78170;BME280;67412;49.892;14.490;2023-12-29T08:50:33;97010.94;;;8.40;91.12
78170;BME280;67412;49.892;14.490;2023-12-29T08:52:58;97016.84;;;8.48;91.03
78170;BME280;67412;49.892;14.490;2023-12-29T08:55:23;97011.59;;;8.60;89.59
78170;BME280;67412;49.892;14.490;2023-12-29T08:57:49;97011.50;;;8.69;89.30
78170;BME280;67412;49.892;14.490;2023-12-29T09:00:14;97006.34;;;8.72;88.83
78170;BME280;67412;49.892;14.490;2023-12-29T09:02:39;97013.16;;;8.70;89.00
78170;BME280;67412;49.892;14.490;2023-12-29T09:05:07;97008.84;;;8.76;88.12
78170;BME280;67412;49.892;14.490;2023-12-29T09:07:32;97015.69;;;8.77;89.38
78170;BME280;67412;49.892;14.490;2023-12-29T09:09:58;97015.63;;;8.78;88.33
78170;BME280;67412;49.892;14.490;2023-12-29T09:12:24;97029.28;;;8.80;88.76
78170;BME280;67412;49.892;14.490;2023-12-29T09:14:49;97024.97;;;8.84;88.14
78170;BME280;67412;49.892;14.490;2023-12-29T09:17:14;97045.44;;;8.85;87.83
78170;BME280;67412;49.892;14.490;2023-12-29T09:19:40;97038.56;;;8.89;87.96
78170;BME280;67412;49.892;14.490;2023-12-29T09:22:05;97045.34;;;8.93;87.54
78170;BME280;67412;49.892;14.490;2023-12-29T09:24:30;97033.38;;;8.93;87.44
78170;BME280;67412;49.892;14.490;2023-12-29T09:26:55;97040.22;;;8.93;87.30
78170;BME280;67412;49.892;14.490;2023-12-29T09:29:21;97035.09;;;8.93;87.09
78170;BME280;67412;49.892;14.490;2023-12-29T09:31:46;97052.22;;;8.91;88.16
78170;BME280;67412;49.892;14.490;2023-12-29T09:34:12;97046.28;;;8.87;88.86
78170;BME280;67412;49.892;14.490;2023-12-29T09:36:37;97040.16;;;8.97;88.65
78170;BME280;67412;49.892;14.490;2023-12-29T09:39:03;97042.59;;;9.08;87.58
78170;BME280;67412;49.892;14.490;2023-12-29T09:41:31;97049.25;;;9.21;87.46
78170;BME280;67412;49.892;14.490;2023-12-29T09:43:57;97048.47;;;9.17;87.78
78170;BME280;67412;49.892;14.490;2023-12-29T09:46:23;97051.72;;;9.29;85.92
78170;BME280;67412;49.892;14.490;2023-12-29T09:48:52;97048.34;;;9.25;86.91
78170;BME280;67412;49.892;14.490;2023-12-29T09:51:18;97037.94;;;9.37;87.23
78170;BME280;67412;49.892;14.490;2023-12-29T09:53:48;97039.50;;;9.47;86.75
78170;BME280;67412;49.892;14.490;2023-12-29T09:56:14;97032.63;;;9.49;85.92
78170;BME280;67412;49.892;14.490;2023-12-29T09:58:40;97025.63;;;9.60;86.28
78170;BME280;67412;49.892;14.490;2023-12-29T10:01:06;97026.50;;;9.59;85.66
78170;BME280;67412;49.892;14.490;2023-12-29T10:03:32;97026.47;;;9.61;84.83
78170;BME280;67412;49.892;14.490;2023-12-29T10:06:00;97005.09;;;9.60;84.65
78170;BME280;67412;49.892;14.490;2023-12-29T10:08:27;97007.59;;;9.65;84.06
78170;BME280;67412;49.892;14.490;2023-12-29T10:10:53;97002.28;;;9.76;83.71
78170;BME280;67412;49.892;14.490;2023-12-29T10:13:20;97001.38;;;9.80;82.85
78170;BME280;67412;49.892;14.490;2023-12-29T10:16:15;97008.88;;;9.90;81.55
78170;BME280;67412;49.892;14.490;2023-12-29T10:19:10;97007.13;;;9.94;80.82
78170;BME280;67412;49.892;14.490;2023-12-29T10:21:48;97008.75;;;9.98;79.85
78170;BME280;67412;49.892;14.490;2023-12-29T10:24:21;97001.84;;;10.04;79.20
78170;BME280;67412;49.892;14.490;2023-12-29T10:26:48;96997.50;;;10.06;78.64
78170;BME280;67412;49.892;14.490;2023-12-29T10:29:14;96991.38;;;10.13;78.13
78170;BME280;67412;49.892;14.490;2023-12-29T10:31:40;96991.19;;;10.27;77.06
78170;BME280;67412;49.892;14.490;2023-12-29T10:36:54;96982.50;;;10.33;77.98
78170;BME280;67412;49.892;14.490;2023-12-29T10:39:20;96981.59;;;10.35;76.93
78170;BME280;67412;49.892;14.490;2023-12-29T10:41:45;96974.16;;;10.22;77.75
78170;BME280;67412;49.892;14.490;2023-12-29T10:44:11;96987.09;;;10.14;77.39
78170;BME280;67412;49.892;14.490;2023-12-29T10:46:36;96982.09;;;10.08;78.47
78170;BME280;67412;49.892;14.490;2023-12-29T10:49:12;96986.56;;;9.97;79.08
78170;BME280;67412;49.892;14.490;2023-12-29T10:51:38;96966.97;;;9.93;78.52
78170;BME280;67412;49.892;14.490;2023-12-29T10:54:04;96971.97;;;9.99;77.95
78170;BME280;67412;49.892;14.490;2023-12-29T10:56:31;96974.47;;;10.02;77.84
78170;BME280;67412;49.892;14.490;2023-12-29T10:59:03;96984.59;;;10.11;78.37
78170;BME280;67412;49.892;14.490;2023-12-29T11:01:33;96973.47;;;10.12;77.41
78170;BME280;67412;49.892;14.490;2023-12-29T11:04:00;96976.03;;;10.10;77.03
78170;BME280;67412;49.892;14.490;2023-12-29T11:06:27;96976.13;;;10.06;77.41
78170;BME280;67412;49.892;14.490;2023-12-29T11:08:53;96967.69;;;9.99;76.59
78170;BME280;67412;49.892;14.490;2023-12-29T11:11:19;96960.00;;;9.98;77.72
78170;BME280;67412;49.892;14.490;2023-12-29T11:13:46;96968.72;;;9.89;79.17
78170;BME280;67412;49.892;14.490;2023-12-29T11:16:12;96960.34;;;9.80;80.33
78170;BME280;67412;49.892;14.490;2023-12-29T11:18:38;96965.47;;;9.80;80.73
78170;BME280;67412;49.892;14.490;2023-12-29T11:21:05;96962.16;;;9.75;80.20
78170;BME280;67412;49.892;14.490;2023-12-29T11:23:31;96954.44;;;9.75;79.88
78170;BME280;67412;49.892;14.490;2023-12-29T11:25:57;96967.22;;;9.78;79.23
78170;BME280;67412;49.892;14.490;2023-12-29T11:28:25;96950.19;;;9.74;79.91
78170;BME280;67412;49.892;14.490;2023-12-29T11:30:50;96956.06;;;9.79;79.27
78170;BME280;67412;49.892;14.490;2023-12-29T11:33:34;96958.63;;;9.79;79.71
78170;BME280;67412;49.892;14.490;2023-12-29T11:36:09;96956.13;;;9.76;79.88
78170;BME280;67412;49.892;14.490;2023-12-29T11:41:42;96966.50;;;9.69;80.04
78170;BME280;67412;49.892;14.490;2023-12-29T11:44:08;96954.47;;;9.73;79.38
78170;BME280;67412;49.892;14.490;2023-12-29T11:46:43;96949.31;;;9.75;79.88
78170;BME280;67412;49.892;14.490;2023-12-29T11:49:09;96951.78;;;9.79;79.25
78170;BME280;67412;49.892;14.490;2023-12-29T11:51:46;96949.19;;;9.82;78.98
78170;BME280;67412;49.892;14.490;2023-12-29T11:54:24;96949.06;;;9.88;78.41
78170;BME280;67412;49.892;14.490;2023-12-29T11:56:50;96939.59;;;9.92;78.05
78170;BME280;67412;49.892;14.490;2023-12-29T12:01:52;96937.97;;;9.88;77.65
78170;BME280;67412;49.892;14.490;2023-12-29T12:07:00;96938.09;;;9.82;77.82
78170;BME280;67412;49.892;14.490;2023-12-29T12:09:25;96921.84;;;9.80;78.52
78170;BME280;67412;49.892;14.490;2023-12-29T12:11:50;96926.97;;;9.81;78.14
78170;BME280;67412;49.892;14.490;2023-12-29T12:14:51;96924.47;;;9.78;78.25
78170;BME280;67412;49.892;14.490;2023-12-29T12:17:31;96921.03;;;9.78;77.41
78170;BME280;67412;49.892;14.490;2023-12-29T12:19:59;96926.97;;;9.80;77.25
78170;BME280;67412;49.892;14.490;2023-12-29T12:22:28;96917.59;;;9.79;76.74
78170;BME280;67412;49.892;14.490;2023-12-29T12:24:59;96919.34;;;9.77;75.53
78170;BME280;67412;49.892;14.490;2023-12-29T12:27:28;96911.63;;;9.78;75.26
78170;BME280;67412;49.892;14.490;2023-12-29T12:29:54;96903.03;;;9.79;75.78
78170;BME280;67412;49.892;14.490;2023-12-29T12:32:23;96905.53;;;9.84;74.86
78170;BME280;67412;49.892;14.490;2023-12-29T12:34:48;96902.97;;;9.85;75.57
78170;BME280;67412;49.892;14.490;2023-12-29T12:39:46;96897.00;;;9.83;76.08
78170;BME280;67412;49.892;14.490;2023-12-29T12:42:13;96892.69;;;9.85;75.58
78170;BME280;67412;49.892;14.490;2023-12-29T12:44:42;96890.88;;;9.90;75.63
78170;BME280;67412;49.892;14.490;2023-12-29T12:47:17;96899.41;;;9.92;73.73
78170;BME280;67412;49.892;14.490;2023-12-29T12:49:44;96904.41;;;9.98;73.96
78170;BME280;67412;49.892;14.490;2023-12-29T12:52:10;96893.34;;;9.95;74.89
78170;BME280;67412;49.892;14.490;2023-12-29T12:54:35;96902.72;;;9.97;73.65
78170;BME280;67412;49.892;14.490;2023-12-29T12:57:01;96895.91;;;9.96;74.02
78170;BME280;67412;49.892;14.490;2023-12-29T12:59:27;96896.56;;;10.06;73.66
78170;BME280;67412;49.892;14.490;2023-12-29T13:01:53;96900.00;;;10.05;73.59
78170;BME280;67412;49.892;14.490;2023-12-29T13:04:19;96897.50;;;10.02;72.66
78170;BME280;67412;49.892;14.490;2023-12-29T13:06:44;96893.22;;;10.02;73.15